Time;durP1;ratioP1;P1;durP2;ratioP2;P2;SDS_P1;SDS_P2;PMS_P1;PMS_P2;Temp;Humidity;BMP_temperature;BMP_pressure;BME280_temperature;BME280_humidity;BME280_pressure;Samples;Min_cycle;Max_cycle;Signal;HPM_P1;HPM_P2
2022/09/08 07:14:07;;;;;;;;;;;22.40;81.40;;;;;;5461776;24;19986;-96
2022/09/08 07:24:33;;;;;;;;;;;22.80;79.90;;;;;;4356906;28;19983;-96
2022/09/08 07:27:05;;;;;;;;;;;22.80;79.60;;;;;;5259634;24;19971;-96
2022/09/08 07:29:39;;;;;;;;;;;22.80;79.30;;;;;;4832218;29;19979;-96
2022/09/08 07:32:36;;;;;;;;;;;22.70;79.20;;;;;;4832357;29;19948;-96
2022/09/08 07:35:32;;;;;;;;;;;22.70;79.30;;;;;;4819478;29;19953;-96
2022/09/08 07:38:01;;;;;;;;;;;22.60;79.50;;;;;;4831885;29;20007;-96
2022/09/08 07:43:17;;;;;;;;;;;22.50;80.40;;;;;;5536207;24;19974;-96
2022/09/08 07:46:00;;;;;;;;;;;22.30;81.20;;;;;;4830607;29;20010;-96
2022/09/08 07:48:44;;;;;;;;;;;22.20;82.20;;;;;;4844158;29;19986;-96
2022/09/08 07:51:10;;;;;;;;;;;21.90;83.40;;;;;;4846015;29;19955;-96
2022/09/08 07:53:51;;;;;;;;;;;21.70;84.40;;;;;;4830040;29;19993;-96
2022/09/08 07:56:21;;;;;;;;;;;21.50;85.00;;;;;;4831613;29;19934;-96
2022/09/08 07:59:05;;;;;;;;;;;21.40;84.70;;;;;;4840170;29;19979;-96
2022/09/08 08:01:37;;;;;;;;;;;21.30;86.70;;;;;;4840004;29;20369;-96
2022/09/08 08:04:18;;;;;;;;;;;21.20;88.50;;;;;;4839220;29;19950;-96
2022/09/08 08:06:49;;;;;;;;;;;21.10;89.10;;;;;;4826004;29;20029;-96
2022/09/08 08:09:33;;;;;;;;;;;21.20;90.10;;;;;;4837655;29;19947;-96
2022/09/08 08:12:17;;;;;;;;;;;21.20;89.50;;;;;;4835801;29;19967;-96
2022/09/08 08:14:58;;;;;;;;;;;21.30;87.50;;;;;;4832735;29;19940;-96
2022/09/08 08:17:31;;;;;;;;;;;21.30;85.90;;;;;;4819911;29;19974;-96
2022/09/08 08:20:29;;;;;;;;;;;21.30;85.70;;;;;;4820369;29;19944;-96
2022/09/08 08:22:57;;;;;;;;;;;21.20;86.10;;;;;;4821025;29;19975;-96
2022/09/08 08:25:29;;;;;;;;;;;21.00;86.50;;;;;;4831499;29;19981;-96
2022/09/08 08:28:09;;;;;;;;;;;20.90;87.00;;;;;;4832577;29;19955;-96
2022/09/08 08:30:43;;;;;;;;;;;20.90;87.40;;;;;;4831146;29;19951;-97
2022/09/08 08:33:19;;;;;;;;;;;20.90;88.60;;;;;;4839454;29;19953;-96
2022/09/08 08:35:50;;;;;;;;;;;20.90;88.50;;;;;;4837945;29;19944;-96
2022/09/08 08:38:30;;;;;;;;;;;21.00;89.00;;;;;;4839723;29;19952;-96
2022/09/08 08:41:00;;;;;;;;;;;21.00;89.90;;;;;;4823629;29;19943;-97
2022/09/08 08:43:40;;;;;;;;;;;21.00;90.70;;;;;;4819490;29;19989;-96
2022/09/08 08:46:12;;;;;;;;;;;21.20;90.80;;;;;;4821108;29;20006;-96
2022/09/08 08:49:00;;;;;;;;;;;21.20;90.10;;;;;;4819547;29;19979;-96
2022/09/08 08:51:44;;;;;;;;;;;21.30;90.20;;;;;;4820508;29;19960;-96
2022/09/08 08:54:15;;;;;;;;;;;21.30;90.00;;;;;;4820885;29;19983;-96
2022/09/08 08:56:58;;;;;;;;;;;21.30;90.00;;;;;;4818994;29;19948;-96
2022/09/08 08:59:39;;;;;;;;;;;21.40;89.80;;;;;;4819831;29;19944;-96
2022/09/08 09:02:34;;;;;;;;;;;21.40;89.50;;;;;;4818548;29;20020;-96
2022/09/08 09:05:06;;;;;;;;;;;21.50;89.90;;;;;;4819045;29;19955;-96
2022/09/08 09:07:40;;;;;;;;;;;21.70;89.70;;;;;;4819531;29;19951;-96
2022/09/08 09:10:24;;;;;;;;;;;21.80;89.10;;;;;;4819949;29;19997;-96
2022/09/08 09:13:16;;;;;;;;;;;22.00;88.70;;;;;;4820659;29;19945;-96
2022/09/08 09:15:51;;;;;;;;;;;22.20;87.60;;;;;;4817601;29;20394;-96
2022/09/08 09:18:41;;;;;;;;;;;22.40;86.50;;;;;;4818872;29;20007;-96
2022/09/08 09:21:09;;;;;;;;;;;22.40;85.10;;;;;;4820372;29;20016;-96
2022/09/08 09:23:37;;;;;;;;;;;22.50;84.90;;;;;;4818979;29;20371;-96
2022/09/08 09:26:19;;;;;;;;;;;22.60;84.50;;;;;;4821055;29;19945;-96
2022/09/08 09:29:08;;;;;;;;;;;22.70;84.70;;;;;;4819579;29;19949;-96
2022/09/08 09:32:01;;;;;;;;;;;22.80;84.90;;;;;;4819650;29;19951;-96
2022/09/08 09:34:29;;;;;;;;;;;23.10;84.60;;;;;;4818968;29;19946;-96
2022/09/08 09:36:56;;;;;;;;;;;23.30;84.30;;;;;;4819465;29;19950;-96
2022/09/08 09:39:44;;;;;;;;;;;23.30;82.80;;;;;;4820501;29;19951;-96
2022/09/08 09:42:16;;;;;;;;;;;23.40;82.80;;;;;;4818867;29;20016;-96
2022/09/08 09:45:20;;;;;;;;;;;23.60;82.10;;;;;;4841843;29;19969;-96
2022/09/08 09:48:08;;;;;;;;;;;23.60;82.30;;;;;;4794406;30;19963;-96
2022/09/08 09:50:58;;;;;;;;;;;23.70;81.00;;;;;;4792661;29;19948;-96
2022/09/08 10:01:34;;;;;;;;;;;24.00;78.20;;;;;;5475186;24;19992;-96
2022/09/08 10:04:19;;;;;;;;;;;23.90;78.10;;;;;;4829465;29;19980;-97
2022/09/08 10:07:07;;;;;;;;;;;23.90;77.90;;;;;;4830602;29;19961;-96
2022/09/08 10:09:42;;;;;;;;;;;23.90;77.50;;;;;;4830561;29;19942;-96
2022/09/08 10:12:27;;;;;;;;;;;24.00;77.80;;;;;;4829278;29;19932;-96
2022/09/08 10:15:32;;;;;;;;;;;24.10;77.10;;;;;;4831515;29;19963;-96
2022/09/08 10:18:32;;;;;;;;;;;24.30;78.00;;;;;;4827786;29;20009;-96
2022/09/08 10:21:28;;;;;;;;;;;24.40;75.50;;;;;;4829899;29;20005;-96
2022/09/08 10:24:16;;;;;;;;;;;24.50;75.60;;;;;;4829395;29;19971;-96
2022/09/08 10:26:42;;;;;;;;;;;24.70;75.30;;;;;;4829430;29;19984;-96
2022/09/08 10:29:29;;;;;;;;;;;24.90;75.10;;;;;;4830480;29;19947;-96
2022/09/08 10:40:10;;;;;;;;;;;25.30;71.40;;;;;;5436356;24;19974;-96
2022/09/08 10:43:05;;;;;;;;;;;25.50;71.50;;;;;;4831628;29;20014;-96
2022/09/08 10:45:54;;;;;;;;;;;25.60;71.00;;;;;;4849021;29;19928;-96
2022/09/08 10:48:54;;;;;;;;;;;25.70;69.80;;;;;;4847973;29;19931;-96
2022/09/08 10:51:39;;;;;;;;;;;25.90;70.60;;;;;;4793609;29;20056;-97
2022/09/08 10:54:35;;;;;;;;;;;26.20;70.50;;;;;;4792876;29;19961;-97
2022/09/08 11:23:08;;;;;;;;;;;28.30;63.00;;;;;;4819442;24;19982;-96
2022/09/08 12:22:40;;;;;;;;;;;30.70;52.80;;;;;;5548532;24;19968;-97
2022/09/08 12:25:28;;;;;;;;;;;30.90;53.40;;;;;;4815470;29;20003;-96
2022/09/08 12:33:25;;;;;;;;;;;33.00;46.30;;;;;;5630581;24;19980;-96
2022/09/08 13:02:35;;;;;;;;;;;32.50;47.10;;;;;;5200616;24;19985;-97
2022/09/08 13:05:24;;;;;;;;;;;31.50;50.10;;;;;;4825149;29;19989;-96
2022/09/08 13:07:56;;;;;;;;;;;30.40;53.70;;;;;;4832280;29;19949;-97
2022/09/08 13:51:00;;;;;;;;;;;38.50;37.20;;;;;;3048098;27;19985;-96
2022/09/08 13:53:32;;;;;;;;;;;37.70;39.10;;;;;;4778864;30;19960;-97
2022/09/08 15:21:10;;;;;;;;;;;28.40;57.60;;;;;;4881950;24;20003;-96
2022/09/08 15:23:43;;;;;;;;;;;28.20;58.30;;;;;;4828777;29;19998;-96
2022/09/08 15:26:40;;;;;;;;;;;28.00;58.50;;;;;;4810790;29;19940;-96
2022/09/08 15:34:31;;;;;;;;;;;27.20;62.80;;;;;;4872085;24;19986;-96
2022/09/08 15:37:19;;;;;;;;;;;26.80;64.60;;;;;;4831529;29;19959;-96
2022/09/08 15:39:46;;;;;;;;;;;26.60;65.70;;;;;;4831291;29;19935;-96
2022/09/08 15:42:23;;;;;;;;;;;26.50;66.10;;;;;;4830746;29;19973;-96
2022/09/08 15:45:12;;;;;;;;;;;26.30;66.70;;;;;;4850183;29;19976;-96
2022/09/08 15:48:01;;;;;;;;;;;26.30;66.60;;;;;;4851109;29;19989;-97
2022/09/08 15:50:56;;;;;;;;;;;26.30;66.70;;;;;;4836184;29;19953;-96
2022/09/08 15:54:02;;;;;;;;;;;26.30;66.70;;;;;;4848598;29;19945;-96
2022/09/08 15:56:46;;;;;;;;;;;26.20;66.10;;;;;;4794770;29;20003;-97
2022/09/08 15:59:31;;;;;;;;;;;26.20;65.70;;;;;;4796246;30;20009;-97
2022/09/08 16:02:10;;;;;;;;;;;26.10;65.60;;;;;;4835016;29;20007;-96
2022/09/08 16:04:46;;;;;;;;;;;26.00;66.00;;;;;;4835632;29;19977;-96
2022/09/08 16:07:18;;;;;;;;;;;26.00;66.30;;;;;;4835496;29;20018;-96
2022/09/08 16:10:03;;;;;;;;;;;26.00;66.40;;;;;;4834984;29;19943;-96
2022/09/08 16:12:38;;;;;;;;;;;26.00;66.70;;;;;;4835774;29;19957;-98
2022/09/08 16:15:29;;;;;;;;;;;25.90;67.40;;;;;;4835500;29;19935;-96
2022/09/08 16:18:44;;;;;;;;;;;25.80;67.30;;;;;;4850742;29;19944;-96
2022/09/08 16:21:28;;;;;;;;;;;25.80;67.60;;;;;;4827373;29;19949;-96
2022/09/08 16:24:03;;;;;;;;;;;25.80;67.70;;;;;;4834093;29;19952;-96
2022/09/08 16:26:50;;;;;;;;;;;25.80;67.60;;;;;;4832788;29;19953;-96
2022/09/08 16:29:33;;;;;;;;;;;25.70;68.30;;;;;;4832985;29;20017;-97
2022/09/08 16:32:20;;;;;;;;;;;25.70;68.50;;;;;;4832505;29;19955;-96
2022/09/08 16:35:13;;;;;;;;;;;25.70;68.60;;;;;;4831473;29;20430;-96
2022/09/08 16:37:40;;;;;;;;;;;25.70;69.00;;;;;;4779083;30;19967;-96
2022/09/08 16:40:09;;;;;;;;;;;25.70;69.70;;;;;;4794619;30;19966;-96
2022/09/08 16:42:55;;;;;;;;;;;25.30;71.10;;;;;;4793919;30;19978;-96
2022/09/08 16:45:49;;;;;;;;;;;25.30;71.80;;;;;;4795365;30;19967;-96
2022/09/08 16:48:30;;;;;;;;;;;25.30;71.30;;;;;;4780103;30;19959;-96
2022/09/08 16:51:24;;;;;;;;;;;25.50;71.00;;;;;;4794531;30;20001;-96
2022/09/08 16:53:52;;;;;;;;;;;25.80;70.00;;;;;;4791368;30;19974;-96
2022/09/08 16:56:40;;;;;;;;;;;26.20;68.70;;;;;;4792293;30;19945;-96
2022/09/08 16:59:12;;;;;;;;;;;26.20;68.50;;;;;;4794857;30;19946;-96
2022/09/08 17:02:07;;;;;;;;;;;26.10;68.90;;;;;;4794964;30;20003;-96
2022/09/08 17:05:02;;;;;;;;;;;26.00;69.20;;;;;;4777056;30;19998;-97
2022/09/08 17:07:35;;;;;;;;;;;25.90;69.70;;;;;;4797111;29;20020;-96
2022/09/08 17:10:07;;;;;;;;;;;25.70;71.50;;;;;;4832170;29;19974;-96
2022/09/08 17:12:53;;;;;;;;;;;25.60;72.20;;;;;;4831608;29;19969;-97
2022/09/08 17:15:42;;;;;;;;;;;25.50;72.10;;;;;;4831059;29;19958;-96
2022/09/08 17:18:11;;;;;;;;;;;25.40;71.60;;;;;;4809419;29;20405;-96
2022/09/08 17:20:42;;;;;;;;;;;25.30;71.80;;;;;;4830334;29;19945;-96
2022/09/08 17:23:20;;;;;;;;;;;25.30;72.20;;;;;;4830162;29;19975;-96
2022/09/08 17:25:51;;;;;;;;;;;25.20;72.20;;;;;;4830288;29;19981;-96
2022/09/08 17:28:38;;;;;;;;;;;25.20;72.40;;;;;;4830845;29;19953;-96
2022/09/08 17:31:11;;;;;;;;;;;25.10;72.60;;;;;;4779269;30;19948;-97
2022/09/08 17:34:10;;;;;;;;;;;25.00;73.00;;;;;;4794573;30;19977;-96
2022/09/08 17:36:48;;;;;;;;;;;24.90;73.40;;;;;;4748273;30;19954;-96
2022/09/08 17:39:37;;;;;;;;;;;24.80;74.00;;;;;;4794005;30;19985;-96
2022/09/08 17:42:05;;;;;;;;;;;24.70;74.60;;;;;;4793553;30;19955;-96
2022/09/08 17:44:41;;;;;;;;;;;24.60;75.10;;;;;;4778726;30;19952;-96
2022/09/08 17:47:16;;;;;;;;;;;24.50;76.40;;;;;;4794149;30;19944;-96
2022/09/08 17:50:08;;;;;;;;;;;24.40;76.90;;;;;;4778722;30;19985;-96
2022/09/08 17:52:36;;;;;;;;;;;24.30;77.30;;;;;;4793416;30;19990;-96
2022/09/08 17:55:15;;;;;;;;;;;24.10;78.00;;;;;;4792849;30;19979;-96
2022/09/08 17:57:50;;;;;;;;;;;24.10;78.30;;;;;;4792676;30;19930;-96
2022/09/08 18:00:21;;;;;;;;;;;24.00;78.00;;;;;;4778888;30;19940;-96
2022/09/08 18:03:12;;;;;;;;;;;24.00;78.00;;;;;;4824133;29;19955;-96
2022/09/08 18:05:42;;;;;;;;;;;24.00;78.10;;;;;;4815550;29;20007;-96
2022/09/08 18:08:33;;;;;;;;;;;24.00;78.10;;;;;;4829569;29;19956;-96
2022/09/08 18:11:10;;;;;;;;;;;24.00;78.30;;;;;;4829094;29;19936;-96
2022/09/08 18:13:40;;;;;;;;;;;23.90;80.50;;;;;;4830186;29;19951;-97
2022/09/08 18:16:26;;;;;;;;;;;23.70;81.00;;;;;;4830261;29;19932;-96
2022/09/08 18:18:58;;;;;;;;;;;23.70;80.70;;;;;;4829944;29;19951;-97
2022/09/08 18:21:55;;;;;;;;;;;23.70;80.20;;;;;;4823066;29;19957;-96
2022/09/08 18:24:27;;;;;;;;;;;23.70;79.60;;;;;;4829851;29;19983;-96
2022/09/08 18:27:18;;;;;;;;;;;23.70;79.60;;;;;;4811639;29;19941;-96
2022/09/08 18:30:13;;;;;;;;;;;23.70;79.60;;;;;;4806998;30;19936;-96
2022/09/08 18:32:53;;;;;;;;;;;23.70;79.80;;;;;;4811626;29;19941;-96
2022/09/08 18:35:58;;;;;;;;;;;23.80;79.30;;;;;;4793352;30;19954;-96
2022/09/08 18:38:33;;;;;;;;;;;23.80;79.20;;;;;;4793587;29;19984;-97
2022/09/08 18:41:24;;;;;;;;;;;23.80;79.00;;;;;;4793136;29;19975;-96
2022/09/08 18:43:57;;;;;;;;;;;23.80;79.00;;;;;;4763772;30;19976;-97
2022/09/08 18:46:53;;;;;;;;;;;23.80;79.00;;;;;;4778419;30;19953;-96
2022/09/08 18:49:33;;;;;;;;;;;23.80;79.10;;;;;;4779460;30;19937;-96
2022/09/08 18:52:20;;;;;;;;;;;23.80;79.10;;;;;;4793381;29;19983;-96
2022/09/08 18:55:24;;;;;;;;;;;23.70;79.10;;;;;;4792984;29;19962;-96
2022/09/08 18:58:14;;;;;;;;;;;23.70;79.40;;;;;;4790837;29;19939;-96
2022/09/08 19:01:00;;;;;;;;;;;23.70;79.50;;;;;;4777682;30;20011;-96
2022/09/08 19:03:53;;;;;;;;;;;23.70;79.70;;;;;;4776613;30;20079;-96
2022/09/08 19:06:35;;;;;;;;;;;23.70;79.90;;;;;;4788610;30;19958;-96
2022/09/08 19:09:02;;;;;;;;;;;23.70;79.90;;;;;;4776295;30;19952;-96
2022/09/08 19:11:32;;;;;;;;;;;23.70;80.00;;;;;;4803581;30;19938;-96
2022/09/08 19:14:05;;;;;;;;;;;23.70;80.10;;;;;;4810716;30;19953;-96
2022/09/08 19:16:52;;;;;;;;;;;23.60;80.10;;;;;;4811831;30;19934;-96
2022/09/08 19:19:32;;;;;;;;;;;23.50;80.30;;;;;;4809556;30;19981;-96
2022/09/08 19:22:23;;;;;;;;;;;23.40;80.60;;;;;;4810774;29;20010;-97
2022/09/08 19:24:59;;;;;;;;;;;23.40;81.00;;;;;;4810492;30;19952;-96
2022/09/08 19:27:31;;;;;;;;;;;23.30;81.20;;;;;;4811485;30;19949;-96
2022/09/08 19:29:58;;;;;;;;;;;23.30;81.50;;;;;;4810528;30;19958;-96
2022/09/08 19:32:57;;;;;;;;;;;23.30;81.60;;;;;;4811665;30;19958;-96
2022/09/08 19:35:38;;;;;;;;;;;23.30;81.90;;;;;;4845330;29;19956;-96
2022/09/08 19:38:20;;;;;;;;;;;23.20;82.00;;;;;;4846469;29;19950;-96
2022/09/08 19:40:46;;;;;;;;;;;23.20;82.20;;;;;;4829869;29;19976;-96
2022/09/08 19:43:18;;;;;;;;;;;23.20;82.50;;;;;;4830231;29;19971;-96
2022/09/08 19:45:59;;;;;;;;;;;23.10;82.70;;;;;;4830771;29;19953;-96
2022/09/08 19:48:36;;;;;;;;;;;23.00;83.00;;;;;;4846261;29;20462;-96
2022/09/08 19:51:09;;;;;;;;;;;23.00;83.30;;;;;;4846080;29;19956;-96
2022/09/08 19:53:46;;;;;;;;;;;22.90;83.50;;;;;;4846160;29;19952;-96
2022/09/08 19:56:27;;;;;;;;;;;22.90;83.70;;;;;;4830519;29;19944;-96
2022/09/08 19:58:53;;;;;;;;;;;22.90;84.00;;;;;;4830438;29;19951;-96
2022/09/08 20:01:23;;;;;;;;;;;22.80;84.10;;;;;;4830776;29;19944;-96
2022/09/08 20:04:21;;;;;;;;;;;22.80;84.30;;;;;;4846438;29;20337;-96
2022/09/08 20:07:10;;;;;;;;;;;22.80;84.40;;;;;;4830513;29;19952;-96
2022/09/08 20:09:43;;;;;;;;;;;22.80;84.50;;;;;;4830349;29;19945;-96
2022/09/08 20:12:38;;;;;;;;;;;22.80;84.50;;;;;;4846490;29;19958;-96
2022/09/08 20:15:14;;;;;;;;;;;22.70;84.50;;;;;;4843422;29;19934;-96
2022/09/08 20:17:45;;;;;;;;;;;22.70;84.50;;;;;;4829243;29;19975;-96
2022/09/08 20:20:22;;;;;;;;;;;22.70;84.30;;;;;;4829711;29;19958;-96
2022/09/08 20:22:48;;;;;;;;;;;22.70;84.20;;;;;;4829096;29;20005;-96
2022/09/08 20:25:25;;;;;;;;;;;22.70;84.20;;;;;;4829353;29;19945;-96
2022/09/08 20:28:12;;;;;;;;;;;22.70;83.90;;;;;;4830635;29;19954;-96
2022/09/08 20:30:54;;;;;;;;;;;22.70;83.90;;;;;;4850174;29;19966;-96
2022/09/08 20:33:33;;;;;;;;;;;22.70;83.70;;;;;;4849342;29;19979;-96
2022/09/08 20:36:05;;;;;;;;;;;22.70;83.70;;;;;;4834626;29;19953;-97
2022/09/08 20:38:53;;;;;;;;;;;22.60;83.90;;;;;;4850413;29;19948;-96
2022/09/08 20:41:41;;;;;;;;;;;22.60;84.00;;;;;;4850093;29;19966;-96
2022/09/08 20:44:30;;;;;;;;;;;22.60;84.10;;;;;;4849836;29;19960;-96
2022/09/08 20:47:16;;;;;;;;;;;22.60;84.10;;;;;;4834549;29;19936;-96
2022/09/08 20:49:55;;;;;;;;;;;22.50;84.20;;;;;;4850074;29;19929;-96
2022/09/08 20:52:39;;;;;;;;;;;22.50;84.40;;;;;;4834005;29;19948;-96
2022/09/08 20:55:15;;;;;;;;;;;22.40;84.80;;;;;;4834083;29;19930;-96
2022/09/08 20:58:00;;;;;;;;;;;22.40;84.90;;;;;;4833565;29;20007;-96
2022/09/08 21:00:29;;;;;;;;;;;22.30;85.10;;;;;;4834496;29;19936;-96
2022/09/08 21:02:59;;;;;;;;;;;22.30;85.30;;;;;;4833865;29;19995;-97
2022/09/08 21:05:28;;;;;;;;;;;22.20;85.40;;;;;;4833652;29;19951;-96
2022/09/08 21:08:19;;;;;;;;;;;22.20;85.70;;;;;;4833026;29;19945;-96
2022/09/08 21:11:07;;;;;;;;;;;22.10;85.80;;;;;;4846351;29;19953;-96
2022/09/08 21:13:44;;;;;;;;;;;22.00;85.80;;;;;;4833139;29;19956;-96
2022/09/08 21:16:25;;;;;;;;;;;21.90;86.40;;;;;;4833226;29;19963;-96
2022/09/08 21:19:22;;;;;;;;;;;21.80;87.00;;;;;;4849289;29;19948;-97
2022/09/08 21:22:01;;;;;;;;;;;21.80;87.30;;;;;;4832345;29;19940;-97
2022/09/08 21:24:52;;;;;;;;;;;21.80;87.20;;;;;;4849341;29;19951;-96
2022/09/08 21:27:36;;;;;;;;;;;21.80;87.50;;;;;;4833276;29;19937;-96
2022/09/08 21:30:16;;;;;;;;;;;21.70;87.70;;;;;;4849015;29;19979;-96
2022/09/08 21:33:01;;;;;;;;;;;21.70;87.80;;;;;;4847951;29;19951;-96
2022/09/08 21:35:35;;;;;;;;;;;21.80;87.20;;;;;;4831368;29;19952;-96
2022/09/08 21:38:07;;;;;;;;;;;21.80;86.80;;;;;;4831747;29;19954;-96
2022/09/08 21:40:52;;;;;;;;;;;21.80;86.70;;;;;;4831760;29;19980;-96
2022/09/08 21:43:24;;;;;;;;;;;21.80;86.70;;;;;;4832345;29;19979;-96
2022/09/08 21:45:58;;;;;;;;;;;21.80;86.90;;;;;;4818486;29;20020;-96
2022/09/08 21:48:28;;;;;;;;;;;21.70;86.90;;;;;;4848590;29;19931;-96
2022/09/08 21:51:01;;;;;;;;;;;21.70;87.10;;;;;;4849047;29;19949;-96
2022/09/08 21:53:40;;;;;;;;;;;21.70;87.20;;;;;;4847839;29;19943;-96
2022/09/08 21:56:22;;;;;;;;;;;21.70;87.10;;;;;;4832919;29;19933;-96
2022/09/08 21:59:07;;;;;;;;;;;21.70;87.00;;;;;;4832450;29;19934;-96
2022/09/08 22:01:40;;;;;;;;;;;21.70;86.90;;;;;;4847859;29;19974;-96
2022/09/08 22:04:22;;;;;;;;;;;21.60;87.00;;;;;;4831788;29;19943;-96
2022/09/08 22:06:53;;;;;;;;;;;21.60;87.10;;;;;;4831559;29;19948;-96
2022/09/08 22:09:24;;;;;;;;;;;21.50;87.20;;;;;;4847033;29;19948;-96
2022/09/08 22:11:55;;;;;;;;;;;21.50;87.30;;;;;;4831546;29;20008;-96
2022/09/08 22:14:25;;;;;;;;;;;21.40;87.40;;;;;;4847880;29;19952;-96
2022/09/08 22:16:55;;;;;;;;;;;21.40;87.50;;;;;;4831437;29;19926;-96
2022/09/08 22:19:39;;;;;;;;;;;21.40;87.70;;;;;;4831809;29;19951;-96
2022/09/08 22:22:05;;;;;;;;;;;21.50;87.80;;;;;;4831988;29;19959;-96
2022/09/08 22:24:38;;;;;;;;;;;21.50;87.80;;;;;;4831855;29;19949;-96
2022/09/08 22:27:04;;;;;;;;;;;21.40;87.70;;;;;;4831968;29;19947;-96
2022/09/08 22:29:31;;;;;;;;;;;21.40;87.60;;;;;;4829542;29;19949;-96
2022/09/08 22:32:05;;;;;;;;;;;21.40;87.50;;;;;;4845897;29;19949;-96
2022/09/08 22:34:44;;;;;;;;;;;21.30;87.50;;;;;;4830882;29;19988;-96
2022/09/08 22:37:20;;;;;;;;;;;21.30;87.50;;;;;;4829659;29;19941;-96
2022/09/08 22:39:52;;;;;;;;;;;21.30;87.60;;;;;;4831760;29;19940;-96
2022/09/08 22:42:27;;;;;;;;;;;21.30;87.70;;;;;;4830605;29;20005;-96
2022/09/08 22:45:19;;;;;;;;;;;21.30;87.90;;;;;;4831742;29;19947;-96
2022/09/08 22:47:51;;;;;;;;;;;21.40;88.10;;;;;;4831278;29;19936;-96
2022/09/08 22:50:16;;;;;;;;;;;21.30;87.90;;;;;;4829158;29;19953;-96
2022/09/08 22:52:47;;;;;;;;;;;21.10;88.10;;;;;;4828796;29;20018;-96
2022/09/08 22:55:26;;;;;;;;;;;21.10;88.50;;;;;;4844185;29;19950;-96
2022/09/08 22:58:12;;;;;;;;;;;21.10;88.40;;;;;;4845775;29;19939;-96
2022/09/08 23:00:49;;;;;;;;;;;21.10;88.60;;;;;;4844385;29;19948;-96
2022/09/08 23:03:34;;;;;;;;;;;21.00;88.70;;;;;;4846154;29;19975;-97
2022/09/08 23:06:05;;;;;;;;;;;20.90;89.20;;;;;;4830002;29;20008;-96
2022/09/08 23:08:32;;;;;;;;;;;20.80;89.80;;;;;;4829940;29;19949;-96
2022/09/08 23:11:17;;;;;;;;;;;20.80;90.30;;;;;;4830645;29;19957;-96
2022/09/08 23:13:53;;;;;;;;;;;20.80;90.90;;;;;;4816538;29;19959;-96
2022/09/08 23:16:34;;;;;;;;;;;20.80;91.10;;;;;;4830010;29;19936;-96
2022/09/08 23:19:07;;;;;;;;;;;20.80;91.30;;;;;;4830579;29;19952;-96
2022/09/08 23:21:56;;;;;;;;;;;20.80;91.10;;;;;;4830951;29;19945;-96
2022/09/08 23:24:42;;;;;;;;;;;20.80;90.80;;;;;;4830271;29;19957;-97
2022/09/08 23:27:17;;;;;;;;;;;20.80;90.70;;;;;;4830722;29;19946;-96
2022/09/08 23:29:49;;;;;;;;;;;20.80;90.60;;;;;;4830390;29;19977;-96
2022/09/08 23:37:54;;;;;;;;;;;20.70;90.20;;;;;;5098162;24;19985;-97
2022/09/08 23:40:28;;;;;;;;;;;20.70;89.80;;;;;;4826938;29;19954;-97
2022/09/08 23:42:55;;;;;;;;;;;20.50;89.60;;;;;;4826909;29;19978;-96
2022/09/08 23:45:30;;;;;;;;;;;20.30;89.90;;;;;;4825755;29;19952;-96
2022/09/08 23:47:59;;;;;;;;;;;20.30;90.40;;;;;;4825080;29;20040;-96
2022/09/08 23:50:33;;;;;;;;;;;20.30;90.80;;;;;;4827342;29;20006;-97
2022/09/08 23:53:10;;;;;;;;;;;20.30;91.20;;;;;;4827922;29;19954;-96
2022/09/08 23:55:39;;;;;;;;;;;20.40;90.90;;;;;;4826497;29;20341;-96
2022/09/08 23:58:13;;;;;;;;;;;20.40;90.70;;;;;;4826632;29;19953;-96
